Orr, MN

12:01 PM CST on December 18, 2014 (GMT -0600)
NOvA Far Detector Building | Change Station
CLOSE
Current Station
Personal Weather Station
Location: Ash River, MN
Elevation: 1230 ft
Nearby Weather Stations

Elev 1230 ft 48.38 °N, 92.83 °W | Updated 192 days ago

Clear
Clear
19 °F
Feels Like 19 °F
N
4
Wind Variable Wind from SSE
Gusts mph

Today
High -- | Low -- °F
--% Chance of Precip.
Yesterday
High -- | Low -- °F
Precip. -- in
7:58 AM 4:17 PM
Waning Crescent, 13% visible
Pressure 30.36 in
Visibility 3.0 miles
Clouds Overcast 2100 ft
Dew Point 9 °F
Humidity 59%
Rainfall 0.00 in
Snow Depth Not available.
UV 0.0 out of 12
Pollen .10 out of 12
Air Quality Not available.
Flu Activity Not available.
METAR KINL 181755Z AUTO 21006KT 3SM -SN OVC021 M08/M11 A3027 RMK AO2 SNB42 SLP280 P0000 60000 T10781106 11078 21189 58009

More Conditions Fewer Conditions

Pressure 30.36 in
Visibility 3.0 miles
Clouds Overcast 2100 ft
Dew Point 9 °F
Humidity 59%
Rainfall 0.00 in
Snow Depth Not available.
UV 0.0 out of 12
Pollen .10 out of 12
Air Quality Not available.
Flu Activity Not available.
METAR KINL 181755Z AUTO 21006KT 3SM -SN OVC021 M08/M11 A3027 RMK AO2 SNB42 SLP280 P0000 60000 T10781106 11078 21189 58009

More Conditions Fewer Conditions

10-Day Weather Forecast

Almanac

Astronomy

Dec. 18, 2014 Rise Set
Actual Time
Civil Twilight
Nautical Twilight
Astronomical Twilight
Moon
Length of Visible Light
Length of Day
Tomorrow will be .
, % of the Moon is Illuminated

Today's Extremes

State Highs State Lows

Community

WunderPhotos

Upload Photos

1,778,970 photos uploaded!

WunderBlogs® & News

Nearby

Air Quality

  Air Quality AQ Index Pollutant
Not available.

Snow Depth

Station Depth Elevation

Earthquake Activity

City Distance Mag. Time & Date
Minimum magnitude displayed is 2.5.

Coastal Water Temperatures

Place Temperature

Nearby Weather Stations